Time;durP1;ratioP1;P1;durP2;ratioP2;P2;SDS_P1;SDS_P2;PMS_P1;PMS_P2;Temp;Humidity;BMP_temperature;BMP_pressure;BME280_temperature;BME280_humidity;BME280_pressure;Samples;Min_cycle;Max_cycle;Signal;HPM_P1;HPM_P2
2022/10/09 00:00:44;;;;;;;14.20;3.22;;;9.30;99.90;;;;;;4972630;28;210417;-71
2022/10/09 00:03:11;;;;;;;14.35;3.20;;;9.30;99.90;;;;;;5008078;28;20059;-71
2022/10/09 00:05:38;;;;;;;15.30;3.10;;;9.20;99.90;;;;;;4982310;28;209165;-71
2022/10/09 00:08:04;;;;;;;15.50;3.22;;;9.20;99.90;;;;;;5027515;28;20041;-72
2022/10/09 00:10:30;;;;;;;16.33;3.30;;;9.10;99.90;;;;;;4984957;28;209976;-72
2022/10/09 00:12:57;;;;;;;16.38;3.75;;;9.10;99.90;;;;;;5024983;28;20064;-72
2022/10/09 00:15:23;;;;;;;13.68;3.25;;;9.10;99.90;;;;;;4959613;28;218858;-71
2022/10/09 00:17:49;;;;;;;14.43;3.47;;;9.10;99.90;;;;;;5012349;28;20046;-71
2022/10/09 00:20:15;;;;;;;14.45;4.00;;;9.00;99.90;;;;;;4980553;28;223810;-71
2022/10/09 00:22:44;;;;;;;12.25;3.60;;;9.00;99.90;;;;;;5023562;28;20050;-70
2022/10/09 00:25:10;;;;;;;16.20;4.07;;;9.00;99.90;;;;;;4998132;28;152741;-71
2022/10/09 00:27:36;;;;;;;18.33;3.70;;;9.00;99.90;;;;;;5008116;28;20052;-72
2022/10/09 00:30:03;;;;;;;14.70;4.00;;;8.90;99.90;;;;;;4978566;28;234142;-72
2022/10/09 00:32:29;;;;;;;14.93;3.85;;;8.90;99.90;;;;;;5034567;28;20522;-72
2022/10/09 00:34:55;;;;;;;17.42;4.10;;;8.90;99.90;;;;;;4980921;28;164789;-71
2022/10/09 00:37:21;;;;;;;12.93;4.10;;;8.90;99.90;;;;;;5015588;28;20057;-71
2022/10/09 00:39:48;;;;;;;16.25;4.20;;;8.80;99.90;;;;;;4975296;28;205820;-71
2022/10/09 00:42:14;;;;;;;12.45;3.78;;;8.80;99.90;;;;;;5020753;28;20050;-71
2022/10/09 00:45:10;;;;;;;15.25;4.22;;;8.80;99.90;;;;;;4972840;28;214153;-71
2022/10/09 00:47:47;;;;;;;16.30;4.10;;;8.80;99.90;;;;;;4987890;28;20049;-72
2022/10/09 00:50:29;;;;;;;18.05;4.40;;;8.70;99.90;;;;;;4992261;28;218972;-71
2022/10/09 00:52:59;;;;;;;15.38;4.70;;;8.70;99.90;;;;;;5037207;28;20057;-71
2022/10/09 00:55:27;;;;;;;14.40;4.55;;;8.70;99.90;;;;;;4979416;28;214088;-72
2022/10/09 00:57:56;;;;;;;14.38;4.28;;;8.70;99.90;;;;;;5006426;28;20057;-73
2022/10/09 01:00:23;;;;;;;16.52;4.13;;;8.60;99.90;;;;;;4981223;28;221614;-71
2022/10/09 01:02:49;;;;;;;14.60;4.03;;;8.60;99.90;;;;;;5009300;28;20054;-71
2022/10/09 01:05:15;;;;;;;14.60;5.03;;;8.60;99.90;;;;;;4981540;28;216722;-71
2022/10/09 01:08:04;;;;;;;17.50;4.07;;;8.50;99.90;;;;;;5028364;28;20045;-70
2022/10/09 01:11:00;;;;;;;15.75;5.07;;;8.50;99.90;;;;;;4987138;28;209527;-71
2022/10/09 01:13:45;;;;;;;14.05;4.32;;;8.40;99.90;;;;;;5027697;28;20066;-71
2022/10/09 01:16:20;;;;;;;16.30;5.03;;;8.40;99.90;;;;;;4983221;28;206698;-72
2022/10/09 01:18:55;;;;;;;15.15;4.40;;;8.40;99.90;;;;;;5027242;28;20084;-71
2022/10/09 01:21:21;;;;;;;13.18;4.60;;;8.40;99.90;;;;;;4982443;28;214229;-72
2022/10/09 01:24:06;;;;;;;12.90;4.95;;;8.40;99.90;;;;;;5025639;28;20049;-72
2022/10/09 01:26:50;;;;;;;17.10;5.13;;;8.30;99.90;;;;;;4975459;28;208751;-72
2022/10/09 01:29:19;;;;;;;17.10;5.13;;;8.30;99.90;;;;;;4982696;28;209664;-72
2022/10/09 01:31:49;;;;;;;17.33;5.40;;;8.30;99.90;;;;;;5016874;28;20048;-71
2022/10/09 01:34:19;;;;;;;15.85;5.57;;;8.30;99.90;;;;;;4994564;28;217738;-72
2022/10/09 01:36:46;;;;;;;15.52;5.15;;;8.20;99.90;;;;;;5009776;28;187615;-72
2022/10/09 01:39:18;;;;;;;16.85;5.30;;;8.20;99.90;;;;;;5017943;28;210246;-72
2022/10/09 01:41:47;;;;;;;15.02;5.18;;;8.10;99.90;;;;;;4997823;28;204286;-72
2022/10/09 01:44:27;;;;;;;17.00;4.75;;;8.10;99.90;;;;;;5011272;28;207610;-71
2022/10/09 01:46:53;;;;;;;14.17;4.63;;;8.10;99.90;;;;;;5001770;28;179122;-73
2022/10/09 01:49:47;;;;;;;15.37;4.73;;;8.00;99.90;;;;;;4976842;28;214865;-72
2022/10/09 01:52:31;;;;;;;15.68;4.82;;;8.00;99.90;;;;;;5007741;28;20057;-70
2022/10/09 01:55:01;;;;;;;15.43;4.93;;;7.90;99.90;;;;;;4980223;28;214595;-71
2022/10/09 01:57:53;;;;;;;15.90;5.47;;;7.90;99.90;;;;;;5021385;28;20061;-71
2022/10/09 02:00:20;;;;;;;17.20;5.68;;;7.80;99.90;;;;;;4921600;28;207683;-71
2022/10/09 02:02:48;;;;;;;15.13;5.10;;;7.90;99.90;;;;;;4967952;28;20185;-71
2022/10/09 02:05:19;;;;;;;15.85;4.90;;;7.80;99.90;;;;;;4938897;28;153806;-71
2022/10/09 02:07:46;;;;;;;18.17;5.50;;;7.80;99.90;;;;;;4954094;28;20069;-71
2022/10/09 02:10:15;;;;;;;14.50;5.28;;;7.70;99.90;;;;;;4912796;28;212351;-72
2022/10/09 02:12:45;;;;;;;21.75;6.30;;;7.70;99.90;;;;;;4955253;28;20057;-71
2022/10/09 02:15:12;;;;;;;19.13;6.65;;;7.70;99.90;;;;;;4915843;28;211677;-71
2022/10/09 02:17:44;;;;;;;22.67;6.40;;;7.70;99.90;;;;;;4949159;28;20050;-72
2022/10/09 02:20:23;;;;;;;22.30;6.38;;;7.70;99.90;;;;;;4908201;28;212909;-72
2022/10/09 02:22:52;;;;;;;14.25;6.40;;;7.70;99.90;;;;;;4974234;28;20050;-74
2022/10/09 02:25:19;;;;;;;16.58;6.70;;;7.70;99.90;;;;;;4936232;28;206619;-72
2022/10/09 02:27:46;;;;;;;22.13;6.85;;;7.70;99.90;;;;;;4960461;28;20046;-72
2022/10/09 02:30:14;;;;;;;19.35;6.70;;;7.60;99.90;;;;;;4927996;28;211340;-72
2022/10/09 02:32:40;;;;;;;15.15;7.20;;;7.60;99.90;;;;;;4986126;28;20401;-71
2022/10/09 02:35:08;;;;;;;19.55;6.85;;;7.60;99.90;;;;;;4916056;28;206884;-72
2022/10/09 02:37:35;;;;;;;20.30;7.40;;;7.50;99.90;;;;;;4999034;28;20533;-72
2022/10/09 02:40:01;;;;;;;18.17;7.10;;;7.60;99.90;;;;;;4976803;28;224804;-72
2022/10/09 02:42:27;;;;;;;22.33;7.63;;;7.50;99.90;;;;;;5019399;28;20053;-71
2022/10/09 02:44:53;;;;;;;20.30;7.32;;;7.50;99.90;;;;;;4968305;28;207613;-73
2022/10/09 02:47:19;;;;;;;22.95;7.60;;;7.50;99.90;;;;;;5008644;28;20530;-72
2022/10/09 02:49:46;;;;;;;15.95;7.47;;;7.50;99.90;;;;;;4983145;28;207271;-71
2022/10/09 02:52:12;;;;;;;17.92;7.30;;;7.50;99.90;;;;;;5020053;28;20049;-72
2022/10/09 02:54:38;;;;;;;18.92;7.53;;;7.50;99.90;;;;;;4993075;28;216140;-71
2022/10/09 02:57:04;;;;;;;21.92;7.88;;;7.50;99.90;;;;;;5028216;28;20045;-72
2022/10/09 02:59:31;;;;;;;15.55;7.35;;;7.40;99.90;;;;;;4975675;28;209718;-72
2022/10/09 03:01:57;;;;;;;20.98;8.18;;;7.40;99.90;;;;;;5022188;28;20048;-72
2022/10/09 03:04:23;;;;;;;16.27;7.80;;;7.40;99.90;;;;;;4972702;28;219412;-71
2022/10/09 03:06:49;;;;;;;16.80;7.40;;;7.40;99.90;;;;;;5025801;28;20514;-72
2022/10/09 03:09:15;;;;;;;18.25;7.60;;;7.40;99.90;;;;;;4991347;28;212712;-72
2022/10/09 03:11:41;;;;;;;19.02;8.50;;;7.30;99.90;;;;;;5005221;28;205451;-72
2022/10/09 03:14:08;;;;;;;16.02;7.68;;;7.40;99.90;;;;;;5020850;28;20067;-72
2022/10/09 03:16:35;;;;;;;17.02;7.72;;;7.30;99.90;;;;;;4998120;28;209320;-72
2022/10/09 03:19:01;;;;;;;16.35;7.20;;;7.20;99.90;;;;;;5025903;28;20096;-72
2022/10/09 03:21:27;;;;;;;17.45;7.80;;;7.20;99.90;;;;;;4998717;28;216578;-72
2022/10/09 03:23:54;;;;;;;17.05;8.48;;;7.20;99.90;;;;;;5011423;28;20498;-72
2022/10/09 03:26:24;;;;;;;18.63;8.00;;;7.10;99.90;;;;;;4982551;28;204892;-71
2022/10/09 03:28:52;;;;;;;16.73;8.02;;;7.10;99.90;;;;;;5022049;28;20060;-72
2022/10/09 03:31:22;;;;;;;21.85;8.75;;;7.10;99.90;;;;;;4965832;28;205365;-72
2022/10/09 03:33:48;;;;;;;18.23;7.90;;;7.10;99.90;;;;;;5010054;28;20053;-72
2022/10/09 03:36:14;;;;;;;18.48;8.48;;;7.10;99.90;;;;;;4972016;28;208303;-71
2022/10/09 03:38:41;;;;;;;23.13;9.05;;;7.10;99.90;;;;;;5039234;28;20046;-71
2022/10/09 03:41:07;;;;;;;20.67;8.45;;;7.00;99.90;;;;;;4993579;28;208474;-72
2022/10/09 03:43:34;;;;;;;19.25;8.15;;;7.00;99.90;;;;;;5023235;28;20053;-72
2022/10/09 03:46:07;;;;;;;16.25;8.00;;;7.00;99.90;;;;;;4985003;28;125729;-74
2022/10/09 03:48:34;;;;;;;17.17;7.80;;;7.00;99.90;;;;;;5006376;28;20042;-72
2022/10/09 03:51:01;;;;;;;18.95;8.25;;;6.90;99.90;;;;;;4981735;28;213037;-72
2022/10/09 03:53:27;;;;;;;16.63;8.50;;;6.90;99.90;;;;;;5022912;28;20053;-73
2022/10/09 03:55:53;;;;;;;19.08;8.85;;;6.80;99.90;;;;;;4964874;28;213827;-72
2022/10/09 03:58:20;;;;;;;18.58;9.63;;;6.90;99.90;;;;;;5022213;28;20064;-73
2022/10/09 04:00:49;;;;;;;19.88;9.05;;;6.90;99.90;;;;;;4981962;28;217710;-73
2022/10/09 04:03:15;;;;;;;21.08;9.30;;;6.90;99.90;;;;;;5025394;28;20527;-73
2022/10/09 04:05:41;;;;;;;19.90;9.07;;;6.90;99.90;;;;;;4972996;28;208607;-72
2022/10/09 04:08:08;;;;;;;20.05;9.13;;;6.90;99.90;;;;;;5024765;28;20422;-72
2022/10/09 04:10:34;;;;;;;19.33;9.38;;;6.90;99.90;;;;;;4988171;28;53826;-72
2022/10/09 04:13:00;;;;;;;19.38;8.40;;;6.90;99.90;;;;;;5003609;28;20107;-73
2022/10/09 04:15:26;;;;;;;17.58;8.85;;;6.90;99.90;;;;;;4980746;28;206849;-72
2022/10/09 04:17:52;;;;;;;16.00;7.95;;;6.90;99.90;;;;;;5026205;28;20045;-72
2022/10/09 04:20:19;;;;;;;18.98;8.98;;;6.80;99.90;;;;;;4983736;28;206538;-72
2022/10/09 04:22:46;;;;;;;17.75;7.57;;;6.80;99.90;;;;;;5032005;28;20061;-72
2022/10/09 04:25:12;;;;;;;16.98;7.95;;;6.70;99.90;;;;;;4992937;28;207130;-72
2022/10/09 04:27:38;;;;;;;14.85;8.55;;;6.70;99.90;;;;;;5022835;28;20049;-72
2022/10/09 04:30:05;;;;;;;16.23;8.35;;;6.60;99.90;;;;;;4983246;28;214747;-72
2022/10/09 04:32:31;;;;;;;18.48;9.70;;;6.60;99.90;;;;;;5016916;28;20525;-71
2022/10/09 04:34:57;;;;;;;15.50;8.88;;;6.50;99.90;;;;;;4993211;28;221778;-72
2022/10/09 04:37:23;;;;;;;18.15;9.65;;;6.50;99.90;;;;;;5039714;28;20068;-72
2022/10/09 04:39:49;;;;;;;15.63;9.45;;;6.60;99.90;;;;;;4981918;28;213630;-73
2022/10/09 04:42:16;;;;;;;18.40;8.95;;;6.50;99.90;;;;;;5024142;28;20050;-72
2022/10/09 04:44:42;;;;;;;17.63;9.93;;;6.50;99.90;;;;;;4987606;28;215591;-73
2022/10/09 04:47:08;;;;;;;20.45;9.50;;;6.60;99.90;;;;;;5028396;28;20064;-72
2022/10/09 04:49:34;;;;;;;19.67;9.65;;;6.50;99.90;;;;;;4982797;28;222204;-72
2022/10/09 04:52:00;;;;;;;18.65;9.20;;;6.60;99.90;;;;;;5011285;28;20049;-74
2022/10/09 04:54:26;;;;;;;19.47;9.30;;;6.60;99.90;;;;;;4980947;28;225487;-72
2022/10/09 04:56:52;;;;;;;18.10;8.98;;;6.60;99.90;;;;;;5039835;28;20049;-73
2022/10/09 04:59:19;;;;;;;18.17;9.23;;;6.50;99.90;;;;;;4986831;28;240944;-72
2022/10/09 05:01:49;;;;;;;17.80;9.57;;;6.60;99.90;;;;;;5022039;28;20057;-73
2022/10/09 05:04:15;;;;;;;23.67;9.70;;;6.50;99.90;;;;;;4980714;28;223885;-74
2022/10/09 05:06:41;;;;;;;19.02;8.73;;;6.60;99.90;;;;;;5006795;28;206053;-73
2022/10/09 05:09:07;;;;;;;19.90;9.30;;;6.60;99.90;;;;;;5026215;28;20049;-72
2022/10/09 05:11:35;;;;;;;19.88;8.65;;;6.50;99.90;;;;;;4982540;28;207561;-71
2022/10/09 05:14:01;;;;;;;18.63;8.40;;;6.50;99.90;;;;;;5025351;28;20056;-73
2022/10/09 05:16:28;;;;;;;20.70;9.30;;;6.50;99.90;;;;;;4971434;28;209978;-72
2022/10/09 05:18:56;;;;;;;26.20;12.27;;;6.40;99.90;;;;;;5023541;28;20529;-72
2022/10/09 05:21:23;;;;;;;33.45;21.20;;;6.40;99.90;;;;;;4978063;28;212017;-72
2022/10/09 05:23:52;;;;;;;33.92;21.40;;;6.40;99.90;;;;;;5026858;28;20069;-73
2022/10/09 05:26:20;;;;;;;45.97;28.75;;;6.40;99.90;;;;;;4968808;28;208572;-72
2022/10/09 05:28:47;;;;;;;32.15;23.05;;;6.30;99.90;;;;;;5027787;28;20073;-72
2022/10/09 05:31:27;;;;;;;39.97;28.50;;;6.30;99.90;;;;;;4997921;28;213069;-72
2022/10/09 05:33:57;;;;;;;41.43;30.10;;;6.30;99.90;;;;;;5040751;28;20041;-73
2022/10/09 05:36:23;;;;;;;43.20;30.90;;;6.30;99.90;;;;;;4982941;28;205354;-72
2022/10/09 05:38:49;;;;;;;31.70;22.33;;;6.20;99.90;;;;;;5029404;28;20068;-73
2022/10/09 05:41:17;;;;;;;41.00;27.33;;;6.20;99.90;;;;;;4971158;28;209327;-73
2022/10/09 05:43:45;;;;;;;42.03;29.90;;;6.20;99.90;;;;;;5029110;28;20050;-73
2022/10/09 05:46:14;;;;;;;48.15;34.63;;;6.10;99.90;;;;;;4972820;28;207829;-74
2022/10/09 05:48:45;;;;;;;41.58;29.90;;;6.10;99.90;;;;;;5030515;28;20053;-73
2022/10/09 05:51:20;;;;;;;42.85;31.48;;;6.10;99.90;;;;;;4986445;28;186896;-73
2022/10/09 05:53:47;;;;;;;44.72;29.88;;;6.10;99.90;;;;;;5027652;28;20083;-72
2022/10/09 05:56:16;;;;;;;38.28;26.90;;;6.00;99.90;;;;;;4983585;28;206837;-72
2022/10/09 05:58:43;;;;;;;32.22;22.48;;;6.00;99.90;;;;;;5047036;28;20064;-73
2022/10/09 06:01:10;;;;;;;29.73;18.20;;;6.00;99.90;;;;;;4982260;28;206716;-73
2022/10/09 06:03:36;;;;;;;26.05;16.35;;;6.00;99.90;;;;;;5022050;28;20049;-73
2022/10/09 06:06:05;;;;;;;25.23;15.65;;;6.00;99.90;;;;;;4993637;28;212196;-74
2022/10/09 06:08:36;;;;;;;23.23;14.30;;;6.00;99.90;;;;;;5026328;28;20049;-72
2022/10/09 06:11:14;;;;;;;28.42;14.02;;;6.10;99.90;;;;;;4993527;28;229672;-75
2022/10/09 06:13:40;;;;;;;22.67;12.50;;;6.10;99.90;;;;;;5024732;28;20121;-73
2022/10/09 06:16:07;;;;;;;21.05;12.07;;;6.10;99.90;;;;;;4996039;28;212572;-72
2022/10/09 06:18:34;;;;;;;23.05;12.63;;;6.10;99.90;;;;;;5031633;28;20036;-73
2022/10/09 06:21:01;;;;;;;22.85;11.98;;;6.20;99.90;;;;;;4982418;28;209546;-72
2022/10/09 06:23:27;;;;;;;23.90;12.45;;;6.20;99.90;;;;;;5020386;28;20430;-73
2022/10/09 06:25:56;;;;;;;21.00;10.95;;;6.30;99.90;;;;;;4976522;28;228327;-72
2022/10/09 06:28:22;;;;;;;19.85;11.48;;;6.30;99.90;;;;;;5021446;28;20518;-72
2022/10/09 06:30:48;;;;;;;22.25;11.20;;;6.40;99.90;;;;;;4976206;28;206019;-71
2022/10/09 06:33:15;;;;;;;19.83;10.63;;;6.40;99.90;;;;;;5022104;28;20049;-72
2022/10/09 06:35:41;;;;;;;20.33;10.85;;;6.40;99.90;;;;;;4984908;28;179352;-73
2022/10/09 06:38:08;;;;;;;20.85;10.85;;;6.50;99.90;;;;;;5026125;28;20049;-72
2022/10/09 06:40:36;;;;;;;20.30;10.55;;;6.50;99.90;;;;;;4993363;28;100531;-73
2022/10/09 06:43:05;;;;;;;17.38;10.07;;;6.60;99.90;;;;;;5019277;28;20061;-73
2022/10/09 06:45:35;;;;;;;20.75;10.18;;;6.60;99.90;;;;;;4964355;28;209126;-74
2022/10/09 06:48:02;;;;;;;17.80;10.27;;;6.60;99.90;;;;;;5021246;28;20057;-73
2022/10/09 06:50:28;;;;;;;22.60;10.45;;;6.70;99.90;;;;;;4979850;28;207281;-73
2022/10/09 06:52:54;;;;;;;19.92;10.50;;;6.70;99.90;;;;;;5026728;28;20730;-73
2022/10/09 06:55:20;;;;;;;15.57;9.65;;;6.80;99.90;;;;;;4975426;28;207644;-74
2022/10/09 06:57:46;;;;;;;19.30;10.27;;;6.80;99.90;;;;;;5001578;28;20426;-73
2022/10/09 07:00:13;;;;;;;19.58;10.40;;;6.90;99.90;;;;;;4986153;28;181866;-73
2022/10/09 07:02:41;;;;;;;20.17;9.95;;;6.90;99.90;;;;;;5004927;28;20525;-74
2022/10/09 07:05:07;;;;;;;21.48;9.88;;;7.00;99.90;;;;;;4990151;28;216784;-73
2022/10/09 07:07:33;;;;;;;16.30;9.93;;;7.00;99.90;;;;;;5002578;28;20506;-74
2022/10/09 07:09:59;;;;;;;17.60;9.75;;;7.00;99.90;;;;;;4988658;28;236319;-74
2022/10/09 07:12:26;;;;;;;18.33;9.90;;;7.10;99.90;;;;;;5025432;28;20054;-74
2022/10/09 07:14:52;;;;;;;19.60;9.27;;;7.10;99.90;;;;;;4982761;28;209357;-73
2022/10/09 07:17:18;;;;;;;20.58;9.93;;;7.20;99.90;;;;;;5029577;28;20053;-73
2022/10/09 07:19:44;;;;;;;19.20;10.00;;;7.20;99.90;;;;;;4973728;28;273706;-74
2022/10/09 07:22:10;;;;;;;18.13;9.75;;;7.30;99.90;;;;;;5033319;28;20061;-73
2022/10/09 07:24:36;;;;;;;18.08;9.65;;;7.30;99.90;;;;;;4971885;28;147849;-74
2022/10/09 07:27:02;;;;;;;18.33;9.70;;;7.40;99.90;;;;;;5023803;28;20057;-73
2022/10/09 07:29:28;;;;;;;17.05;9.23;;;7.40;99.90;;;;;;4990331;28;234724;-73
2022/10/09 07:31:54;;;;;;;17.23;8.77;;;7.50;99.90;;;;;;5021802;28;20045;-73
2022/10/09 07:34:21;;;;;;;16.53;8.97;;;7.50;99.90;;;;;;4978071;28;211568;-73
2022/10/09 07:36:47;;;;;;;17.95;9.25;;;7.60;99.90;;;;;;5044959;28;20410;-74
2022/10/09 07:39:13;;;;;;;17.67;9.13;;;7.60;99.90;;;;;;4996139;28;212330;-73
2022/10/09 07:41:39;;;;;;;18.80;8.82;;;7.70;99.90;;;;;;4956052;28;121096;-73
2022/10/09 07:44:05;;;;;;;16.35;8.63;;;7.80;99.90;;;;;;5011081;28;20061;-73
2022/10/09 07:46:31;;;;;;;18.73;8.88;;;7.80;99.90;;;;;;4963190;28;213986;-70
2022/10/09 07:48:57;;;;;;;16.45;8.85;;;7.90;99.90;;;;;;5028450;28;20060;-69
2022/10/09 07:51:26;;;;;;;19.95;9.07;;;8.00;99.90;;;;;;4998261;28;210922;-72
2022/10/09 07:53:53;;;;;;;17.33;8.55;;;8.10;99.90;;;;;;5029100;28;20060;-73
2022/10/09 07:56:24;;;;;;;17.48;8.38;;;8.10;99.90;;;;;;4994472;28;223595;-71
2022/10/09 07:58:52;;;;;;;16.80;8.40;;;8.20;99.90;;;;;;5018769;28;20053;-72
2022/10/09 08:01:19;;;;;;;16.88;7.85;;;8.30;99.90;;;;;;4988840;28;219478;-72
2022/10/09 08:03:45;;;;;;;16.45;8.27;;;8.30;99.90;;;;;;5025156;28;20061;-71
2022/10/09 08:06:11;;;;;;;18.80;8.25;;;8.40;99.90;;;;;;4968941;28;206604;-71
2022/10/09 08:08:38;;;;;;;23.10;7.93;;;8.50;99.90;;;;;;5024159;28;20056;-71
2022/10/09 08:11:10;;;;;;;18.77;8.20;;;8.60;99.90;;;;;;4983481;28;210543;-71
2022/10/09 08:13:36;;;;;;;15.10;7.43;;;8.60;99.90;;;;;;5028546;28;20064;-72
2022/10/09 08:16:03;;;;;;;23.50;8.15;;;8.70;99.90;;;;;;4984464;28;213711;-73
2022/10/09 08:18:30;;;;;;;15.52;7.30;;;8.80;99.90;;;;;;5027386;28;20056;-72
2022/10/09 08:21:00;;;;;;;17.38;8.10;;;8.80;99.90;;;;;;4992940;28;137956;-72
2022/10/09 08:23:27;;;;;;;17.33;7.20;;;8.90;99.90;;;;;;5027062;28;20056;-71
2022/10/09 08:25:53;;;;;;;14.90;7.28;;;8.90;99.90;;;;;;4998552;28;208960;-72
2022/10/09 08:28:20;;;;;;;18.35;6.88;;;9.00;99.90;;;;;;5031908;28;20053;-72
2022/10/09 08:30:46;;;;;;;14.52;6.10;;;9.00;99.90;;;;;;4989103;28;215239;-73
2022/10/09 08:33:12;;;;;;;15.05;6.38;;;9.10;99.90;;;;;;5032070;28;20045;-74
2022/10/09 08:35:38;;;;;;;14.93;6.53;;;9.20;99.90;;;;;;4984987;28;201779;-73
2022/10/09 08:38:04;;;;;;;15.13;6.38;;;9.30;99.90;;;;;;5027299;28;20053;-72
2022/10/09 08:40:51;;;;;;;13.32;5.63;;;9.40;99.90;;;;;;4989872;28;210214;-72
2022/10/09 08:43:22;;;;;;;14.55;5.80;;;9.50;99.90;;;;;;5032040;28;20120;-72
2022/10/09 08:45:50;;;;;;;;;;;9.60;99.90;;;;;;4991996;28;227354;-73
2022/10/09 08:48:21;;;;;;;13.80;6.30;;;9.70;99.90;;;;;;5026081;28;19917;-72
2022/10/09 08:50:52;;;;;;;;;;;9.80;99.90;;;;;;4966023;28;228631;-72
2022/10/09 08:53:37;;;;;;;13.77;6.65;;;9.90;99.90;;;;;;5023432;28;19928;-72
2022/10/09 08:56:08;;;;;;;14.93;6.70;;;10.00;99.90;;;;;;4981356;28;206599;-72
2022/10/09 08:58:38;;;;;;;17.17;6.45;;;10.10;99.90;;;;;;5024316;28;20065;-72
2022/10/09 09:01:25;;;;;;;12.02;6.72;;;10.20;99.90;;;;;;4977630;28;209029;-73
2022/10/09 09:04:13;;;;;;;14.45;6.50;;;10.20;99.90;;;;;;5029396;28;20049;-72
2022/10/09 09:06:51;;;;;;;18.40;7.00;;;10.30;99.90;;;;;;4969691;28;199292;-73
2022/10/09 09:09:36;;;;;;;14.48;6.55;;;10.40;99.90;;;;;;4983573;28;208840;-73
2022/10/09 09:12:22;;;;;;;14.70;6.40;;;10.50;99.90;;;;;;5022095;28;20037;-72
2022/10/09 09:15:02;;;;;;;16.75;6.05;;;10.70;99.90;;;;;;4983606;28;229840;-72
2022/10/09 09:17:40;;;;;;;15.60;5.90;;;10.80;99.90;;;;;;5031059;28;20053;-72
2022/10/09 09:20:25;;;;;;;17.08;6.47;;;10.90;99.90;;;;;;4971798;28;208483;-73
2022/10/09 09:22:52;;;;;;;13.82;5.75;;;11.00;99.90;;;;;;5013297;28;20041;-71
2022/10/09 09:25:32;;;;;;;17.95;5.55;;;11.10;99.90;;;;;;4984913;28;208408;-72
2022/10/09 09:28:12;;;;;;;16.73;5.75;;;11.20;99.90;;;;;;5020872;28;20045;-75
2022/10/09 09:30:46;;;;;;;13.20;5.27;;;11.30;99.90;;;;;;4981174;28;162836;-73
2022/10/09 09:33:20;;;;;;;16.00;5.70;;;11.40;99.90;;;;;;5025505;28;20304;-72
2022/10/09 09:36:15;;;;;;;17.13;5.00;;;11.50;99.90;;;;;;4977666;28;211617;-72
2022/10/09 09:38:41;;;;;;;17.20;5.57;;;11.60;99.90;;;;;;4976546;28;20049;-71
2022/10/09 09:41:07;;;;;;;20.13;5.20;;;11.70;99.90;;;;;;4963422;28;206455;-73
2022/10/09 09:43:34;;;;;;;12.45;4.60;;;11.80;99.90;;;;;;5002556;28;20053;-72
2022/10/09 09:46:01;;;;;;;13.35;4.32;;;11.90;99.90;;;;;;4953297;28;207247;-72
2022/10/09 09:48:40;;;;;;;13.07;4.68;;;11.90;99.90;;;;;;5002802;28;20053;-71
2022/10/09 09:51:24;;;;;;;15.80;4.88;;;12.00;99.90;;;;;;4939831;28;220209;-73
2022/10/09 09:53:53;;;;;;;15.43;4.57;;;12.20;99.90;;;;;;4982511;28;20046;-72
2022/10/09 09:56:20;;;;;;;15.57;5.13;;;12.30;99.90;;;;;;4937028;28;159676;-71
2022/10/09 09:58:50;;;;;;;15.65;4.88;;;12.30;99.90;;;;;;4986490;28;20058;-72
2022/10/09 10:01:20;;;;;;;15.55;4.30;;;12.40;99.90;;;;;;4952697;28;218337;-69
2022/10/09 10:03:49;;;;;;;14.10;4.13;;;12.40;99.90;;;;;;5000270;28;20094;-72
2022/10/09 10:06:33;;;;;;;14.05;3.55;;;12.40;99.90;;;;;;4907658;28;206864;-71
2022/10/09 10:09:11;;;;;;;13.20;3.65;;;12.50;99.90;;;;;;4988274;28;20042;-72
2022/10/09 10:11:45;;;;;;;13.48;3.38;;;12.60;99.90;;;;;;4941627;28;205825;-72
2022/10/09 10:14:13;;;;;;;13.35;3.50;;;12.70;99.90;;;;;;4994854;28;212950;-72
2022/10/09 10:16:40;;;;;;;10.75;3.03;;;12.80;99.90;;;;;;4987145;28;212754;-72
2022/10/09 10:19:20;;;;;;;13.90;3.10;;;12.90;99.90;;;;;;5019896;28;20069;-72
2022/10/09 10:21:54;;;;;;;11.95;2.88;;;13.00;99.90;;;;;;4961777;28;198284;-71
2022/10/09 10:24:31;;;;;;;14.15;3.63;;;13.10;99.90;;;;;;4975194;28;227738;-71
2022/10/09 10:27:09;;;;;;;12.18;3.65;;;13.30;99.90;;;;;;5036613;28;20057;-72
2022/10/09 10:29:42;;;;;;;17.45;3.25;;;13.70;99.90;;;;;;4975027;28;213702;-71
2022/10/09 10:32:38;;;;;;;13.23;2.65;;;14.20;99.90;;;;;;5037606;28;20057;-71
2022/10/09 10:35:15;;;;;;;12.68;2.50;;;14.90;99.90;;;;;;4982088;28;207031;-71
2022/10/09 10:37:54;;;;;;;10.90;2.00;;;15.80;99.90;;;;;;5004042;28;20076;-72
2022/10/09 10:40:29;;;;;;;14.70;2.45;;;15.80;99.90;;;;;;4975368;28;215355;-72
2022/10/09 10:43:08;;;;;;;11.60;2.20;;;15.90;99.90;;;;;;5021259;28;20050;-71
2022/10/09 10:45:39;;;;;;;10.93;2.03;;;16.50;99.90;;;;;;4986755;28;214449;-71
2022/10/09 10:48:12;;;;;;;12.63;2.45;;;16.80;99.90;;;;;;5027085;28;20045;-72
2022/10/09 10:50:49;;;;;;;10.73;2.20;;;16.50;99.90;;;;;;4976413;28;206201;-71
2022/10/09 10:53:50;;;;;;;13.90;2.13;;;17.10;99.90;;;;;;5024411;28;20049;-71
2022/10/09 10:56:42;;;;;;;10.48;1.98;;;17.80;99.90;;;;;;4985496;28;214342;-72
2022/10/09 10:59:46;;;;;;;9.45;1.80;;;18.00;99.50;;;;;;5016381;28;20656;-72
2022/10/09 11:02:49;;;;;;;12.55;2.00;;;18.50;99.90;;;;;;4906769;28;218044;-71
2022/10/09 11:05:37;;;;;;;10.68;1.80;;;18.70;98.70;;;;;;4916695;28;207074;-72
2022/10/09 11:08:12;;;;;;;10.30;1.85;;;18.80;99.90;;;;;;4962506;28;20047;-71
2022/10/09 11:10:53;;;;;;;11.70;2.15;;;19.10;98.90;;;;;;4898146;28;171252;-71
2022/10/09 11:13:29;;;;;;;12.45;3.03;;;19.10;98.50;;;;;;4944524;28;20065;-72
2022/10/09 11:16:34;;;;;;;14.48;3.65;;;19.20;99.40;;;;;;4925700;28;109328;-71
2022/10/09 11:19:31;;;;;;;18.92;7.43;;;19.80;98.70;;;;;;4951190;28;20066;-70
2022/10/09 11:22:20;;;;;;;11.98;3.00;;;20.50;97.10;;;;;;4893331;28;203432;-71
2022/10/09 11:25:07;;;;;;;12.18;2.85;;;20.20;97.10;;;;;;4904474;28;205972;-70
2022/10/09 11:28:02;;;;;;;10.45;2.55;;;20.40;97.60;;;;;;4961484;28;20054;-71
2022/10/09 11:30:36;;;;;;;11.13;2.70;;;20.70;95.30;;;;;;4917115;28;218582;-70
2022/10/09 11:33:21;;;;;;;12.02;2.80;;;21.00;96.20;;;;;;4952744;28;20043;-71
2022/10/09 11:35:57;;;;;;;9.93;2.33;;;21.50;96.60;;;;;;4901588;28;162869;-71
2022/10/09 11:38:30;;;;;;;13.23;2.78;;;21.60;96.20;;;;;;4961036;28;20045;-71
2022/10/09 11:40:57;;;;;;;12.93;2.80;;;22.00;96.40;;;;;;4984682;28;206395;-69
2022/10/09 11:43:23;;;;;;;10.48;2.30;;;22.30;95.70;;;;;;5031240;28;20045;-70
2022/10/09 11:46:14;;;;;;;10.05;2.05;;;22.50;93.40;;;;;;4988654;28;204774;-71
2022/10/09 11:49:15;;;;;;;9.50;2.20;;;22.80;92.40;;;;;;5007569;28;20158;-69
2022/10/09 11:52:07;;;;;;;11.27;2.28;;;23.10;91.60;;;;;;4983137;28;163914;-69
2022/10/09 11:54:34;;;;;;;10.18;2.28;;;24.00;93.10;;;;;;4972406;28;218358;-71
2022/10/09 11:57:03;;;;;;;9.75;2.25;;;24.30;92.70;;;;;;5015669;28;20057;-69
2022/10/09 11:59:34;;;;;;;9.85;2.10;;;24.60;91.70;;;;;;4977855;28;209621;-71
2022/10/09 12:02:17;;;;;;;16.23;2.38;;;24.30;87.70;;;;;;5020243;28;20049;-70
2022/10/09 12:04:44;;;;;;;10.57;2.20;;;24.10;87.70;;;;;;4983237;28;204849;-70
2022/10/09 12:07:12;;;;;;;11.95;2.50;;;24.00;88.20;;;;;;5032633;28;20060;-69
2022/10/09 12:09:46;;;;;;;10.20;2.55;;;24.30;88.70;;;;;;4972494;28;217152;-70
2022/10/09 12:12:15;;;;;;;9.93;2.42;;;24.50;83.10;;;;;;5016206;28;20057;-70
2022/10/09 12:14:44;;;;;;;10.45;2.20;;;24.30;83.30;;;;;;4980205;28;214976;-69
2022/10/09 12:17:16;;;;;;;13.68;2.72;;;23.90;80.80;;;;;;5032105;28;20057;-70
2022/10/09 12:19:43;;;;;;;10.60;2.50;;;24.00;81.00;;;;;;4971142;28;210997;-70
2022/10/09 12:22:18;;;;;;;10.60;2.10;;;24.40;85.20;;;;;;5019012;28;20058;-69
2022/10/09 12:24:49;;;;;;;10.30;2.55;;;25.10;85.70;;;;;;4975370;28;215391;-70
2022/10/09 12:27:32;;;;;;;9.85;2.42;;;25.80;81.80;;;;;;5004513;28;20057;-69
2022/10/09 12:30:20;;;;;;;11.13;2.63;;;26.00;82.50;;;;;;4973941;28;209588;-69
2022/10/09 12:33:14;;;;;;;10.73;2.55;;;26.60;80.40;;;;;;5009501;28;20057;-68
2022/10/09 12:35:46;;;;;;;10.95;2.95;;;26.60;70.50;;;;;;4976772;28;209400;-69
2022/10/09 12:38:24;;;;;;;11.05;2.70;;;26.20;75.30;;;;;;5024017;28;20144;-70
2022/10/09 12:40:52;;;;;;;11.88;2.83;;;25.80;71.80;;;;;;4983489;28;218580;-70
2022/10/09 12:43:21;;;;;;;10.98;3.10;;;25.80;72.20;;;;;;5015491;28;20049;-70
2022/10/09 12:45:49;;;;;;;10.73;2.90;;;25.70;73.00;;;;;;4980355;28;210675;-69
2022/10/09 12:48:22;;;;;;;10.90;3.25;;;25.50;73.30;;;;;;5018191;28;20060;-69
2022/10/09 12:50:48;;;;;;;13.98;3.55;;;25.50;71.00;;;;;;4984066;28;149245;-70
2022/10/09 12:53:22;;;;;;;10.93;3.15;;;25.30;73.10;;;;;;5028689;28;20050;-69
2022/10/09 12:55:56;;;;;;;16.65;3.70;;;25.70;71.30;;;;;;4980252;28;206208;-70
2022/10/09 12:58:26;;;;;;;11.98;3.42;;;25.50;71.50;;;;;;5019176;28;20057;-70